JST1123 YBMK-YBBN
Flight info
| Callsign | JST1123 |
|---|---|
| Flight time | N/A |
| Altitude | 37000 |
| Route | DCT MK V153 MUNAR Y61 RUROX Y177 BN DCT |
| Aircraft | A320/M-SDE3FGHIRWY/LB1 |
Departure
| Time | 2026-05-05 06:34 |
|---|---|
| Airport | Mackay Airport (YBMK) |
Arrival
| Time | N/A |
|---|---|
| Airport | Brisbane International Airport (YBBN) |
| Time | Latitude | Longitude | Altitude | Speed | Heading |
|---|---|---|---|---|---|
| 2026-05-05 06:22 | -21.17520 | 149.18214 | 28 ft | 0 kts | 288° |
| 2026-05-05 06:28 | -21.17520 | 149.18213 | 28 ft | 0 kts | 288° |
| 2026-05-05 06:29 | -21.17519 | 149.18212 | 28 ft | 1 kts | 291° |
| 2026-05-05 06:29 | -21.17499 | 149.18208 | 27 ft | 7 kts | 13° |
| 2026-05-05 06:30 | -21.17455 | 149.18253 | 28 ft | 12 kts | 54° |
| 2026-05-05 06:30 | -21.17394 | 149.18340 | 26 ft | 17 kts | 53° |
| 2026-05-05 06:30 | -21.17301 | 149.18403 | 27 ft | 18 kts | 344° |
| 2026-05-05 06:30 | -21.17189 | 149.18330 | 27 ft | 20 kts | 328° |
| 2026-05-05 06:31 | -21.17061 | 149.18244 | 28 ft | 23 kts | 328° |
| 2026-05-05 06:31 | -21.17052 | 149.18238 | 25 ft | 23 kts | 328° |
| 2026-05-05 06:31 | -21.17030 | 149.18223 | 25 ft | 24 kts | 328° |
| 2026-05-05 06:31 | -21.16881 | 149.18127 | 24 ft | 27 kts | 329° |
| 2026-05-05 06:32 | -21.16715 | 149.18018 | 26 ft | 29 kts | 328° |
| 2026-05-05 06:32 | -21.16536 | 149.17903 | 27 ft | 31 kts | 329° |
| 2026-05-05 06:32 | -21.16369 | 149.17792 | 28 ft | 25 kts | 329° |
| 2026-05-05 06:32 | -21.16334 | 149.17739 | 27 ft | 6 kts | 205° |
| 2026-05-05 06:33 | -21.16372 | 149.17769 | 27 ft | 16 kts | 141° |
| 2026-05-05 06:33 | -21.16702 | 149.18008 | 25 ft | 94 kts | 147° |
| 2026-05-05 06:33 | -21.17414 | 149.18490 | 26 ft | 148 kts | 148° |
| 2026-05-05 06:33 | -21.18348 | 149.19109 | 577 ft | 145 kts | 148° |
| 2026-05-05 06:34 | -21.19166 | 149.19617 | 1390 ft | 136 kts | 152° |
| 2026-05-05 06:34 | -21.20046 | 149.20111 | 1805 ft | 150 kts | 150° |
| 2026-05-05 06:34 | -21.21018 | 149.20763 | 1980 ft | 182 kts | 147° |
| 2026-05-05 06:34 | -21.22135 | 149.21575 | 2283 ft | 207 kts | 146° |
| 2026-05-05 06:35 | -21.23426 | 149.22444 | 2701 ft | 232 kts | 156° |
| 2026-05-05 06:35 | -21.25040 | 149.22932 | 3342 ft | 248 kts | 166° |
| 2026-05-05 06:35 | -21.26746 | 149.23335 | 4260 ft | 254 kts | 167° |
| 2026-05-05 06:35 | -21.28495 | 149.23724 | 5179 ft | 260 kts | 167° |
| 2026-05-05 06:36 | -21.30289 | 149.24116 | 6047 ft | 267 kts | 167° |
| 2026-05-05 06:36 | -21.32128 | 149.24515 | 6896 ft | 273 kts | 167° |
| 2026-05-05 06:36 | -21.34009 | 149.24923 | 7728 ft | 278 kts | 166° |
| 2026-05-05 06:36 | -21.35929 | 149.25342 | 8520 ft | 285 kts | 167° |
| 2026-05-05 06:37 | -21.37895 | 149.25773 | 9291 ft | 291 kts | 168° |
| 2026-05-05 06:37 | -21.39900 | 149.26215 | 10007 ft | 298 kts | 168° |
| 2026-05-05 06:37 | -21.41994 | 149.26679 | 10362 ft | 318 kts | 169° |
| 2026-05-05 06:37 | -21.44242 | 149.27176 | 10544 ft | 341 kts | 169° |
| 2026-05-05 06:38 | -21.46649 | 149.27707 | 10666 ft | 364 kts | 169° |
| 2026-05-05 06:38 | -21.49165 | 149.28281 | 10786 ft | 385 kts | 166° |
| 2026-05-05 06:38 | -21.51735 | 149.29236 | 11143 ft | 395 kts | 159° |
| 2026-05-05 06:38 | -21.54312 | 149.30326 | 11645 ft | 401 kts | 159° |
| 2026-05-05 06:39 | -21.56929 | 149.31426 | 12163 ft | 406 kts | 159° |
| 2026-05-05 06:39 | -21.59586 | 149.32537 | 12669 ft | 412 kts | 159° |
| 2026-05-05 06:39 | -21.62272 | 149.33658 | 13178 ft | 418 kts | 160° |
| 2026-05-05 06:39 | -21.64997 | 149.34800 | 13683 ft | 423 kts | 160° |
| 2026-05-05 06:40 | -21.67760 | 149.35961 | 14154 ft | 428 kts | 160° |
| 2026-05-05 06:40 | -21.70560 | 149.37140 | 14650 ft | 432 kts | 160° |
| 2026-05-05 06:40 | -21.73372 | 149.38323 | 15168 ft | 436 kts | 160° |
| 2026-05-05 06:40 | -21.76212 | 149.39517 | 15696 ft | 439 kts | 160° |
| 2026-05-05 06:41 | -21.79074 | 149.40720 | 16231 ft | 443 kts | 160° |
| 2026-05-05 06:41 | -21.81954 | 149.41931 | 16754 ft | 447 kts | 160° |
| 2026-05-05 06:41 | -21.84860 | 149.43157 | 17269 ft | 450 kts | 160° |
| 2026-05-05 06:41 | -21.87793 | 149.44393 | 17772 ft | 454 kts | 161° |
| 2026-05-05 06:42 | -21.90748 | 149.45637 | 18273 ft | 458 kts | 161° |
| 2026-05-05 06:42 | -21.93729 | 149.46892 | 18681 ft | 462 kts | 161° |
| 2026-05-05 06:42 | -21.96743 | 149.48164 | 19095 ft | 466 kts | 161° |
| 2026-05-05 06:42 | -21.99729 | 149.49425 | 19503 ft | 469 kts | 161° |
| 2026-05-05 06:43 | -22.02782 | 149.50718 | 19908 ft | 472 kts | 161° |
| 2026-05-05 06:43 | -22.05866 | 149.52026 | 20307 ft | 476 kts | 161° |
| 2026-05-05 06:43 | -22.08932 | 149.53321 | 20693 ft | 479 kts | 161° |
| 2026-05-05 06:43 | -22.12074 | 149.54648 | 21078 ft | 482 kts | 161° |
| 2026-05-05 06:44 | -22.15170 | 149.55957 | 21438 ft | 485 kts | 161° |
| 2026-05-05 06:44 | -22.18330 | 149.57294 | 21816 ft | 488 kts | 161° |
| 2026-05-05 06:44 | -22.21518 | 149.58648 | 22175 ft | 492 kts | 161° |
| 2026-05-05 06:44 | -22.24687 | 149.59996 | 22473 ft | 495 kts | 161° |
| 2026-05-05 06:45 | -22.27900 | 149.61364 | 22814 ft | 498 kts | 161° |
| 2026-05-05 06:45 | -22.31143 | 149.62739 | 23142 ft | 501 kts | 161° |
| 2026-05-05 06:45 | -22.34396 | 149.64116 | 23456 ft | 503 kts | 162° |
| 2026-05-05 06:45 | -22.37667 | 149.65496 | 23726 ft | 506 kts | 162° |
| 2026-05-05 06:46 | -22.40938 | 149.66881 | 23988 ft | 508 kts | 161° |
| 2026-05-05 06:46 | -22.44248 | 149.68291 | 24254 ft | 511 kts | 161° |
| 2026-05-05 06:46 | -22.47561 | 149.69704 | 24511 ft | 513 kts | 162° |
| 2026-05-05 06:46 | -22.50885 | 149.71121 | 24777 ft | 515 kts | 162° |
| 2026-05-05 06:47 | -22.54195 | 149.72528 | 25026 ft | 518 kts | 162° |
| 2026-05-05 06:47 | -22.57577 | 149.73965 | 25271 ft | 520 kts | 162° |
| 2026-05-05 06:47 | -22.60951 | 149.75398 | 25521 ft | 523 kts | 162° |
| 2026-05-05 06:47 | -22.64344 | 149.76843 | 25776 ft | 525 kts | 162° |
| 2026-05-05 06:48 | -22.67753 | 149.78297 | 26028 ft | 527 kts | 162° |
| 2026-05-05 06:48 | -22.71155 | 149.79748 | 26274 ft | 529 kts | 162° |
| 2026-05-05 06:48 | -22.74601 | 149.81220 | 26510 ft | 531 kts | 162° |
| 2026-05-05 06:48 | -22.78039 | 149.82687 | 26722 ft | 533 kts | 162° |
| 2026-05-05 06:49 | -22.80320 | 149.83662 | 26864 ft | 534 kts | 162° |
| 2026-05-05 06:49 | -22.84953 | 149.85643 | 27189 ft | 535 kts | 162° |
| 2026-05-05 06:49 | -22.88404 | 149.87121 | 27491 ft | 534 kts | 162° |
| 2026-05-05 06:49 | -22.90691 | 149.88103 | 27685 ft | 534 kts | 162° |
| 2026-05-05 06:50 | -22.94145 | 149.89589 | 27979 ft | 534 kts | 162° |
| 2026-05-05 06:50 | -22.97595 | 149.91074 | 28284 ft | 534 kts | 163° |
| 2026-05-05 06:50 | -23.01050 | 149.92560 | 28611 ft | 533 kts | 163° |
| 2026-05-05 06:50 | -23.04500 | 149.94045 | 28928 ft | 533 kts | 163° |
| 2026-05-05 06:51 | -23.07953 | 149.95524 | 29265 ft | 533 kts | 163° |
| 2026-05-05 06:51 | -23.11411 | 149.97002 | 29595 ft | 533 kts | 163° |
| 2026-05-05 06:51 | -23.14840 | 149.98473 | 29958 ft | 533 kts | 163° |
| 2026-05-05 06:51 | -23.18331 | 149.99973 | 30259 ft | 533 kts | 163° |
| 2026-05-05 06:52 | -23.21776 | 150.01457 | 30562 ft | 533 kts | 163° |
| 2026-05-05 06:52 | -23.25229 | 150.02944 | 30881 ft | 532 kts | 163° |
| 2026-05-05 06:52 | -23.28636 | 150.04415 | 31183 ft | 532 kts | 163° |
| 2026-05-05 06:52 | -23.32097 | 150.05908 | 31491 ft | 532 kts | 163° |
| 2026-05-05 06:53 | -23.35497 | 150.07376 | 31828 ft | 531 kts | 163° |
| 2026-05-05 06:53 | -23.38948 | 150.08867 | 32161 ft | 530 kts | 163° |
| 2026-05-05 06:53 | -23.42388 | 150.10351 | 32485 ft | 530 kts | 164° |
| 2026-05-05 06:53 | -23.45823 | 150.11834 | 32825 ft | 530 kts | 164° |
| 2026-05-05 06:54 | -23.49214 | 150.13294 | 33002 ft | 531 kts | 164° |
| 2026-05-05 06:54 | -23.56080 | 150.16257 | 33027 ft | 530 kts | 164° |
| 2026-05-05 06:55 | -23.62937 | 150.19228 | 33027 ft | 529 kts | 163° |
| 2026-05-05 06:55 | -23.69779 | 150.22200 | 33027 ft | 529 kts | 163° |
| 2026-05-05 06:56 | -23.76611 | 150.25171 | 33031 ft | 529 kts | 164° |
| 2026-05-05 06:56 | -23.83441 | 150.28139 | 33027 ft | 528 kts | 164° |
| 2026-05-05 06:57 | -23.90232 | 150.31086 | 33028 ft | 528 kts | 164° |
| 2026-05-05 06:57 | -23.97072 | 150.34072 | 33030 ft | 528 kts | 164° |
| 2026-05-05 06:58 | -24.03890 | 150.37042 | 33029 ft | 528 kts | 164° |
| 2026-05-05 06:58 | -24.10725 | 150.40024 | 33027 ft | 526 kts | 165° |
| 2026-05-05 06:59 | -24.17522 | 150.42999 | 33038 ft | 530 kts | 165° |
| 2026-05-05 06:59 | -24.24395 | 150.45994 | 33035 ft | 533 kts | 165° |
| 2026-05-05 07:00 | -24.31312 | 150.49026 | 33040 ft | 535 kts | 164° |
| 2026-05-05 07:00 | -24.38213 | 150.52061 | 33044 ft | 535 kts | 164° |
| 2026-05-05 07:01 | -24.45084 | 150.55087 | 33042 ft | 534 kts | 164° |
| 2026-05-05 07:01 | -24.51787 | 150.58696 | 33063 ft | 543 kts | 151° |
| 2026-05-05 07:02 | -24.58092 | 150.63301 | 33047 ft | 544 kts | 150° |
| 2026-05-05 07:02 | -24.64380 | 150.67908 | 33059 ft | 544 kts | 151° |
| 2026-05-05 07:03 | -24.70675 | 150.72506 | 33053 ft | 544 kts | 151° |
| 2026-05-05 07:03 | -24.76987 | 150.77119 | 33067 ft | 545 kts | 150° |
| 2026-05-05 07:04 | -24.83316 | 150.81748 | 33063 ft | 545 kts | 150° |
| 2026-05-05 07:04 | -24.89608 | 150.86367 | 33062 ft | 545 kts | 150° |
| 2026-05-05 07:05 | -24.95932 | 150.91008 | 33062 ft | 545 kts | 150° |
| 2026-05-05 07:05 | -25.02229 | 150.95631 | 33055 ft | 545 kts | 150° |
| 2026-05-05 07:06 | -25.08533 | 151.00277 | 33061 ft | 545 kts | 150° |
| 2026-05-05 07:06 | -25.14841 | 151.04923 | 33052 ft | 545 kts | 150° |
| 2026-05-05 07:07 | -25.21156 | 151.09569 | 33064 ft | 545 kts | 150° |
| 2026-05-05 07:07 | -25.27464 | 151.14235 | 33057 ft | 546 kts | 150° |
| 2026-05-05 07:08 | -25.33783 | 151.18909 | 33065 ft | 546 kts | 150° |
| 2026-05-05 07:08 | -25.40082 | 151.23582 | 33060 ft | 546 kts | 150° |
| 2026-05-05 07:09 | -25.46396 | 151.28271 | 33059 ft | 546 kts | 150° |
| 2026-05-05 07:09 | -25.52699 | 151.32947 | 33058 ft | 546 kts | 150° |
| 2026-05-05 07:10 | -25.59001 | 151.37633 | 33061 ft | 545 kts | 150° |
| 2026-05-05 07:10 | -25.65295 | 151.42317 | 33075 ft | 545 kts | 150° |
| 2026-05-05 07:11 | -25.71589 | 151.47004 | 33063 ft | 545 kts | 150° |
| 2026-05-05 07:11 | -25.77565 | 151.52217 | 33064 ft | 550 kts | 141° |
| 2026-05-05 07:12 | -25.83259 | 151.57896 | 33061 ft | 550 kts | 141° |
| 2026-05-05 07:12 | -25.88959 | 151.63555 | 33064 ft | 550 kts | 141° |
| 2026-05-05 07:13 | -25.94625 | 151.69184 | 33065 ft | 549 kts | 141° |
| 2026-05-05 07:13 | -26.00313 | 151.74848 | 33065 ft | 550 kts | 140° |
| 2026-05-05 07:14 | -26.06010 | 151.80532 | 33068 ft | 550 kts | 140° |
| 2026-05-05 07:14 | -26.11713 | 151.86239 | 33071 ft | 550 kts | 140° |
| 2026-05-05 07:15 | -26.17401 | 151.91922 | 33071 ft | 550 kts | 140° |
| 2026-05-05 07:15 | -26.23062 | 151.97585 | 33075 ft | 549 kts | 141° |
| 2026-05-05 07:16 | -26.28737 | 152.03279 | 33076 ft | 549 kts | 140° |
| 2026-05-05 07:16 | -26.34391 | 152.08964 | 33073 ft | 545 kts | 140° |
| 2026-05-05 07:16 | -26.37209 | 152.11798 | 32286 ft | 544 kts | 140° |
| 2026-05-05 07:17 | -26.40026 | 152.14632 | 31139 ft | 549 kts | 140° |
| 2026-05-05 07:17 | -26.42868 | 152.17492 | 30022 ft | 551 kts | 140° |
| 2026-05-05 07:17 | -26.45718 | 152.20364 | 28729 ft | 552 kts | 140° |
| 2026-05-05 07:17 | -26.48569 | 152.23238 | 27436 ft | 552 kts | 140° |
| 2026-05-05 07:18 | -26.51419 | 152.26107 | 26116 ft | 551 kts | 140° |
| 2026-05-05 07:18 | -26.54258 | 152.28971 | 24737 ft | 551 kts | 140° |
| 2026-05-05 07:18 | -26.57097 | 152.31836 | 23643 ft | 546 kts | 141° |
| 2026-05-05 07:18 | -26.59882 | 152.34655 | 22647 ft | 535 kts | 141° |
| 2026-05-05 07:19 | -26.62614 | 152.37426 | 21697 ft | 526 kts | 140° |
| 2026-05-05 07:19 | -26.65299 | 152.40156 | 20753 ft | 518 kts | 140° |
| 2026-05-05 07:19 | -26.67936 | 152.42863 | 19873 ft | 510 kts | 139° |
| 2026-05-05 07:19 | -26.70523 | 152.45538 | 19050 ft | 502 kts | 138° |